sensor_id;sensor_type;location;lat;lon;timestamp;P1;durP1;ratioP1;P2;durP2;ratioP2
21181;SDS011;10749;46.296;7.524;2023-08-21T00:00:59;7.65;;;4.25;;
21181;SDS011;10749;46.296;7.524;2023-08-21T00:03:24;5.80;;;3.67;;
21181;SDS011;10749;46.296;7.524;2023-08-21T00:05:50;9.43;;;4.28;;
21181;SDS011;10749;46.296;7.524;2023-08-21T00:08:15;8.52;;;3.70;;
21181;SDS011;10749;46.296;7.524;2023-08-21T00:10:41;7.70;;;4.07;;
21181;SDS011;10749;46.296;7.524;2023-08-21T00:13:06;5.97;;;3.90;;
21181;SDS011;10749;46.296;7.524;2023-08-21T00:15:32;7.05;;;3.58;;
21181;SDS011;10749;46.296;7.524;2023-08-21T00:17:57;9.85;;;4.32;;
21181;SDS011;10749;46.296;7.524;2023-08-21T00:20:23;7.78;;;3.83;;
21181;SDS011;10749;46.296;7.524;2023-08-21T00:22:48;8.73;;;3.80;;
21181;SDS011;10749;46.296;7.524;2023-08-21T00:25:14;9.60;;;4.05;;
21181;SDS011;10749;46.296;7.524;2023-08-21T00:27:39;8.88;;;4.00;;
21181;SDS011;10749;46.296;7.524;2023-08-21T00:30:04;7.35;;;3.88;;
21181;SDS011;10749;46.296;7.524;2023-08-21T00:32:30;9.20;;;4.15;;
21181;SDS011;10749;46.296;7.524;2023-08-21T00:34:55;6.82;;;4.10;;
21181;SDS011;10749;46.296;7.524;2023-08-21T00:37:21;7.72;;;4.05;;
21181;SDS011;10749;46.296;7.524;2023-08-21T00:39:46;8.93;;;3.88;;
21181;SDS011;10749;46.296;7.524;2023-08-21T00:42:11;8.23;;;4.15;;
21181;SDS011;10749;46.296;7.524;2023-08-21T00:44:36;7.82;;;4.03;;
21181;SDS011;10749;46.296;7.524;2023-08-21T00:47:02;6.43;;;4.25;;
21181;SDS011;10749;46.296;7.524;2023-08-21T00:49:27;9.25;;;3.83;;
21181;SDS011;10749;46.296;7.524;2023-08-21T00:51:54;9.57;;;4.00;;
21181;SDS011;10749;46.296;7.524;2023-08-21T00:54:19;8.68;;;3.90;;
21181;SDS011;10749;46.296;7.524;2023-08-21T00:56:45;7.43;;;3.83;;
21181;SDS011;10749;46.296;7.524;2023-08-21T00:59:10;7.97;;;3.40;;
21181;SDS011;10749;46.296;7.524;2023-08-21T01:01:37;8.95;;;3.83;;
21181;SDS011;10749;46.296;7.524;2023-08-21T01:04:03;8.32;;;4.28;;
21181;SDS011;10749;46.296;7.524;2023-08-21T01:06:28;7.80;;;4.07;;
21181;SDS011;10749;46.296;7.524;2023-08-21T01:08:57;8.93;;;3.95;;
21181;SDS011;10749;46.296;7.524;2023-08-21T01:12:12;9.57;;;3.95;;
21181;SDS011;10749;46.296;7.524;2023-08-21T01:17:07;7.93;;;3.85;;
21181;SDS011;10749;46.296;7.524;2023-08-21T01:19:40;8.20;;;4.13;;
21181;SDS011;10749;46.296;7.524;2023-08-21T01:22:07;12.02;;;4.20;;
21181;SDS011;10749;46.296;7.524;2023-08-21T01:24:32;8.95;;;4.18;;
21181;SDS011;10749;46.296;7.524;2023-08-21T01:26:58;5.22;;;3.88;;
21181;SDS011;10749;46.296;7.524;2023-08-21T01:29:23;11.40;;;4.18;;
21181;SDS011;10749;46.296;7.524;2023-08-21T01:31:54;7.15;;;4.10;;
21181;SDS011;10749;46.296;7.524;2023-08-21T01:34:43;7.90;;;4.15;;
21181;SDS011;10749;46.296;7.524;2023-08-21T01:37:11;9.65;;;4.40;;
21181;SDS011;10749;46.296;7.524;2023-08-21T01:39:36;7.47;;;4.00;;
21181;SDS011;10749;46.296;7.524;2023-08-21T01:42:02;7.53;;;4.07;;
21181;SDS011;10749;46.296;7.524;2023-08-21T01:44:27;7.63;;;3.92;;
21181;SDS011;10749;46.296;7.524;2023-08-21T01:46:53;6.20;;;3.53;;
21181;SDS011;10749;46.296;7.524;2023-08-21T01:49:18;10.02;;;4.28;;
21181;SDS011;10749;46.296;7.524;2023-08-21T01:51:44;6.95;;;3.95;;
21181;SDS011;10749;46.296;7.524;2023-08-21T01:54:10;9.20;;;4.03;;
21181;SDS011;10749;46.296;7.524;2023-08-21T01:56:35;9.18;;;3.97;;
21181;SDS011;10749;46.296;7.524;2023-08-21T01:59:01;6.53;;;3.97;;
21181;SDS011;10749;46.296;7.524;2023-08-21T02:01:27;7.40;;;4.22;;
21181;SDS011;10749;46.296;7.524;2023-08-21T02:03:52;6.57;;;3.65;;
21181;SDS011;10749;46.296;7.524;2023-08-21T02:06:17;6.35;;;4.00;;
21181;SDS011;10749;46.296;7.524;2023-08-21T02:08:43;11.57;;;4.30;;
21181;SDS011;10749;46.296;7.524;2023-08-21T02:11:08;7.07;;;4.25;;
21181;SDS011;10749;46.296;7.524;2023-08-21T02:13:33;8.80;;;4.22;;
21181;SDS011;10749;46.296;7.524;2023-08-21T02:15:59;10.15;;;4.25;;
21181;SDS011;10749;46.296;7.524;2023-08-21T02:18:24;7.93;;;3.92;;
21181;SDS011;10749;46.296;7.524;2023-08-21T02:20:49;7.47;;;4.18;;
21181;SDS011;10749;46.296;7.524;2023-08-21T02:23:15;8.68;;;4.00;;
21181;SDS011;10749;46.296;7.524;2023-08-21T02:25:41;9.02;;;4.25;;
21181;SDS011;10749;46.296;7.524;2023-08-21T02:28:06;8.50;;;4.53;;
21181;SDS011;10749;46.296;7.524;2023-08-21T02:30:31;7.78;;;3.80;;
21181;SDS011;10749;46.296;7.524;2023-08-21T02:32:57;8.40;;;3.80;;
21181;SDS011;10749;46.296;7.524;2023-08-21T02:35:22;7.68;;;4.10;;
21181;SDS011;10749;46.296;7.524;2023-08-21T02:37:48;6.75;;;3.80;;
21181;SDS011;10749;46.296;7.524;2023-08-21T02:40:13;8.38;;;3.92;;
21181;SDS011;10749;46.296;7.524;2023-08-21T02:42:38;10.30;;;4.43;;
21181;SDS011;10749;46.296;7.524;2023-08-21T02:45:04;7.20;;;4.05;;
21181;SDS011;10749;46.296;7.524;2023-08-21T02:47:39;9.75;;;4.15;;
21181;SDS011;10749;46.296;7.524;2023-08-21T02:50:06;7.70;;;4.13;;
21181;SDS011;10749;46.296;7.524;2023-08-21T02:52:33;9.38;;;4.05;;
21181;SDS011;10749;46.296;7.524;2023-08-21T02:54:59;7.38;;;4.35;;
21181;SDS011;10749;46.296;7.524;2023-08-21T02:57:25;8.65;;;4.35;;
21181;SDS011;10749;46.296;7.524;2023-08-21T02:59:51;7.63;;;4.20;;
21181;SDS011;10749;46.296;7.524;2023-08-21T03:02:17;8.27;;;4.43;;
21181;SDS011;10749;46.296;7.524;2023-08-21T03:04:42;10.20;;;4.63;;
21181;SDS011;10749;46.296;7.524;2023-08-21T03:07:08;7.18;;;4.18;;
21181;SDS011;10749;46.296;7.524;2023-08-21T03:09:33;7.88;;;4.38;;
21181;SDS011;10749;46.296;7.524;2023-08-21T03:11:58;8.00;;;4.45;;
21181;SDS011;10749;46.296;7.524;2023-08-21T03:14:24;8.00;;;4.35;;
21181;SDS011;10749;46.296;7.524;2023-08-21T03:16:51;7.45;;;4.55;;
21181;SDS011;10749;46.296;7.524;2023-08-21T03:19:16;7.20;;;4.75;;
21181;SDS011;10749;46.296;7.524;2023-08-21T03:21:42;7.53;;;3.85;;
21181;SDS011;10749;46.296;7.524;2023-08-21T03:24:07;7.20;;;4.47;;
21181;SDS011;10749;46.296;7.524;2023-08-21T03:26:32;6.70;;;4.38;;
21181;SDS011;10749;46.296;7.524;2023-08-21T03:28:58;8.52;;;4.43;;
21181;SDS011;10749;46.296;7.524;2023-08-21T03:31:23;12.75;;;4.50;;
21181;SDS011;10749;46.296;7.524;2023-08-21T03:33:48;10.15;;;4.97;;
21181;SDS011;10749;46.296;7.524;2023-08-21T03:36:14;11.02;;;4.40;;
21181;SDS011;10749;46.296;7.524;2023-08-21T03:38:39;6.68;;;4.25;;
21181;SDS011;10749;46.296;7.524;2023-08-21T03:41:04;7.97;;;4.35;;
21181;SDS011;10749;46.296;7.524;2023-08-21T03:43:30;8.95;;;4.35;;
21181;SDS011;10749;46.296;7.524;2023-08-21T03:45:56;7.57;;;4.63;;
21181;SDS011;10749;46.296;7.524;2023-08-21T03:48:21;9.65;;;4.97;;
21181;SDS011;10749;46.296;7.524;2023-08-21T03:50:47;10.23;;;4.40;;
21181;SDS011;10749;46.296;7.524;2023-08-21T03:53:12;8.98;;;4.55;;
21181;SDS011;10749;46.296;7.524;2023-08-21T03:55:38;8.35;;;4.40;;
21181;SDS011;10749;46.296;7.524;2023-08-21T03:58:03;12.13;;;4.72;;
21181;SDS011;10749;46.296;7.524;2023-08-21T04:00:28;9.10;;;4.70;;
21181;SDS011;10749;46.296;7.524;2023-08-21T04:02:53;8.90;;;4.25;;
21181;SDS011;10749;46.296;7.524;2023-08-21T04:05:19;10.75;;;4.63;;
21181;SDS011;10749;46.296;7.524;2023-08-21T04:07:44;10.27;;;4.32;;
21181;SDS011;10749;46.296;7.524;2023-08-21T04:10:09;10.13;;;4.43;;
21181;SDS011;10749;46.296;7.524;2023-08-21T04:12:35;10.13;;;4.53;;
21181;SDS011;10749;46.296;7.524;2023-08-21T04:15:00;9.60;;;4.35;;
21181;SDS011;10749;46.296;7.524;2023-08-21T04:17:25;8.82;;;4.25;;
21181;SDS011;10749;46.296;7.524;2023-08-21T04:19:50;9.90;;;4.78;;
21181;SDS011;10749;46.296;7.524;2023-08-21T04:22:16;12.23;;;4.30;;
21181;SDS011;10749;46.296;7.524;2023-08-21T04:24:41;8.15;;;4.20;;
21181;SDS011;10749;46.296;7.524;2023-08-21T04:27:07;11.35;;;4.50;;
21181;SDS011;10749;46.296;7.524;2023-08-21T04:29:33;8.90;;;4.38;;
21181;SDS011;10749;46.296;7.524;2023-08-21T04:31:59;7.97;;;4.32;;
21181;SDS011;10749;46.296;7.524;2023-08-21T04:34:25;7.70;;;4.20;;
21181;SDS011;10749;46.296;7.524;2023-08-21T04:36:50;12.70;;;4.75;;
21181;SDS011;10749;46.296;7.524;2023-08-21T04:39:15;13.95;;;4.72;;
21181;SDS011;10749;46.296;7.524;2023-08-21T04:41:41;7.70;;;4.30;;
21181;SDS011;10749;46.296;7.524;2023-08-21T04:44:06;8.07;;;4.70;;
21181;SDS011;10749;46.296;7.524;2023-08-21T04:46:32;7.65;;;4.82;;
21181;SDS011;10749;46.296;7.524;2023-08-21T04:48:57;9.90;;;4.88;;
21181;SDS011;10749;46.296;7.524;2023-08-21T04:51:22;13.80;;;4.82;;
21181;SDS011;10749;46.296;7.524;2023-08-21T04:53:48;13.45;;;4.68;;
21181;SDS011;10749;46.296;7.524;2023-08-21T04:56:13;12.52;;;4.82;;
21181;SDS011;10749;46.296;7.524;2023-08-21T04:58:38;13.93;;;5.00;;
21181;SDS011;10749;46.296;7.524;2023-08-21T05:01:04;15.63;;;5.25;;
21181;SDS011;10749;46.296;7.524;2023-08-21T05:03:30;15.63;;;5.30;;
21181;SDS011;10749;46.296;7.524;2023-08-21T05:05:55;22.45;;;4.93;;
21181;SDS011;10749;46.296;7.524;2023-08-21T05:08:22;10.77;;;4.75;;
21181;SDS011;10749;46.296;7.524;2023-08-21T05:10:48;12.43;;;4.75;;
21181;SDS011;10749;46.296;7.524;2023-08-21T05:13:19;11.00;;;5.22;;
21181;SDS011;10749;46.296;7.524;2023-08-21T05:15:44;8.48;;;4.50;;
21181;SDS011;10749;46.296;7.524;2023-08-21T05:18:16;9.48;;;5.10;;
21181;SDS011;10749;46.296;7.524;2023-08-21T05:20:41;8.43;;;4.03;;
21181;SDS011;10749;46.296;7.524;2023-08-21T05:23:06;11.05;;;4.95;;
21181;SDS011;10749;46.296;7.524;2023-08-21T05:25:32;11.60;;;4.53;;
21181;SDS011;10749;46.296;7.524;2023-08-21T05:27:58;14.57;;;5.40;;
21181;SDS011;10749;46.296;7.524;2023-08-21T05:30:23;12.02;;;5.07;;
21181;SDS011;10749;46.296;7.524;2023-08-21T05:32:48;8.63;;;5.07;;
21181;SDS011;10749;46.296;7.524;2023-08-21T05:35:13;8.20;;;4.93;;
21181;SDS011;10749;46.296;7.524;2023-08-21T05:37:39;8.60;;;5.07;;
21181;SDS011;10749;46.296;7.524;2023-08-21T05:40:04;8.23;;;4.53;;
21181;SDS011;10749;46.296;7.524;2023-08-21T05:42:30;8.38;;;4.95;;
21181;SDS011;10749;46.296;7.524;2023-08-21T05:44:56;8.77;;;4.47;;
21181;SDS011;10749;46.296;7.524;2023-08-21T05:47:21;11.50;;;5.20;;
21181;SDS011;10749;46.296;7.524;2023-08-21T05:49:47;10.73;;;5.47;;
21181;SDS011;10749;46.296;7.524;2023-08-21T05:52:13;10.98;;;5.38;;
21181;SDS011;10749;46.296;7.524;2023-08-21T05:54:38;8.80;;;4.97;;
21181;SDS011;10749;46.296;7.524;2023-08-21T05:57:04;9.90;;;5.40;;
21181;SDS011;10749;46.296;7.524;2023-08-21T05:59:30;10.77;;;4.90;;
21181;SDS011;10749;46.296;7.524;2023-08-21T06:01:56;8.65;;;4.75;;
21181;SDS011;10749;46.296;7.524;2023-08-21T06:04:22;12.45;;;4.68;;
21181;SDS011;10749;46.296;7.524;2023-08-21T06:06:47;8.05;;;5.03;;
21181;SDS011;10749;46.296;7.524;2023-08-21T06:09:12;8.93;;;5.20;;
21181;SDS011;10749;46.296;7.524;2023-08-21T06:11:38;8.20;;;4.85;;
21181;SDS011;10749;46.296;7.524;2023-08-21T06:14:03;8.68;;;4.53;;
21181;SDS011;10749;46.296;7.524;2023-08-21T06:16:29;9.77;;;5.32;;
21181;SDS011;10749;46.296;7.524;2023-08-21T06:18:54;13.80;;;5.90;;
21181;SDS011;10749;46.296;7.524;2023-08-21T06:21:20;9.45;;;4.82;;
21181;SDS011;10749;46.296;7.524;2023-08-21T06:23:45;10.02;;;5.20;;
21181;SDS011;10749;46.296;7.524;2023-08-21T06:26:10;8.35;;;4.75;;
21181;SDS011;10749;46.296;7.524;2023-08-21T06:28:35;8.63;;;5.03;;
21181;SDS011;10749;46.296;7.524;2023-08-21T06:31:01;10.55;;;5.32;;
21181;SDS011;10749;46.296;7.524;2023-08-21T06:33:32;9.50;;;5.22;;
21181;SDS011;10749;46.296;7.524;2023-08-21T06:35:58;7.38;;;4.85;;
21181;SDS011;10749;46.296;7.524;2023-08-21T06:38:23;9.18;;;5.30;;
21181;SDS011;10749;46.296;7.524;2023-08-21T06:40:48;10.23;;;4.78;;
21181;SDS011;10749;46.296;7.524;2023-08-21T06:43:14;7.95;;;4.80;;
21181;SDS011;10749;46.296;7.524;2023-08-21T06:45:39;10.93;;;5.10;;
21181;SDS011;10749;46.296;7.524;2023-08-21T06:48:04;10.15;;;5.10;;
21181;SDS011;10749;46.296;7.524;2023-08-21T06:50:30;8.70;;;5.10;;
21181;SDS011;10749;46.296;7.524;2023-08-21T06:52:55;9.88;;;5.38;;
21181;SDS011;10749;46.296;7.524;2023-08-21T06:55:21;8.52;;;5.00;;
21181;SDS011;10749;46.296;7.524;2023-08-21T06:57:46;11.05;;;5.18;;
21181;SDS011;10749;46.296;7.524;2023-08-21T07:00:11;14.02;;;5.72;;
21181;SDS011;10749;46.296;7.524;2023-08-21T07:02:37;9.38;;;5.40;;
21181;SDS011;10749;46.296;7.524;2023-08-21T07:05:02;12.65;;;5.10;;
21181;SDS011;10749;46.296;7.524;2023-08-21T07:07:28;11.18;;;5.15;;
21181;SDS011;10749;46.296;7.524;2023-08-21T07:09:53;11.90;;;5.35;;
21181;SDS011;10749;46.296;7.524;2023-08-21T07:12:19;9.13;;;5.15;;
21181;SDS011;10749;46.296;7.524;2023-08-21T07:14:44;11.10;;;5.78;;
21181;SDS011;10749;46.296;7.524;2023-08-21T07:17:09;11.25;;;5.20;;
21181;SDS011;10749;46.296;7.524;2023-08-21T07:19:34;11.63;;;5.70;;
21181;SDS011;10749;46.296;7.524;2023-08-21T07:22:00;11.40;;;6.00;;
21181;SDS011;10749;46.296;7.524;2023-08-21T07:24:25;12.68;;;5.65;;
21181;SDS011;10749;46.296;7.524;2023-08-21T07:26:50;13.82;;;4.93;;
21181;SDS011;10749;46.296;7.524;2023-08-21T07:29:15;9.90;;;5.45;;
21181;SDS011;10749;46.296;7.524;2023-08-21T07:31:41;9.50;;;5.25;;
21181;SDS011;10749;46.296;7.524;2023-08-21T07:34:06;13.07;;;5.63;;
21181;SDS011;10749;46.296;7.524;2023-08-21T07:36:31;7.10;;;5.22;;
21181;SDS011;10749;46.296;7.524;2023-08-21T07:38:57;8.60;;;5.57;;
21181;SDS011;10749;46.296;7.524;2023-08-21T07:41:22;10.55;;;5.57;;
21181;SDS011;10749;46.296;7.524;2023-08-21T07:43:47;7.90;;;5.70;;
21181;SDS011;10749;46.296;7.524;2023-08-21T07:46:13;11.63;;;5.38;;
21181;SDS011;10749;46.296;7.524;2023-08-21T07:48:40;9.95;;;5.20;;
21181;SDS011;10749;46.296;7.524;2023-08-21T07:51:09;11.63;;;5.40;;
21181;SDS011;10749;46.296;7.524;2023-08-21T07:53:34;10.82;;;5.82;;
21181;SDS011;10749;46.296;7.524;2023-08-21T07:56:00;11.35;;;5.60;;
21181;SDS011;10749;46.296;7.524;2023-08-21T07:58:26;9.43;;;5.38;;
21181;SDS011;10749;46.296;7.524;2023-08-21T08:00:51;8.77;;;5.45;;
21181;SDS011;10749;46.296;7.524;2023-08-21T08:03:17;12.45;;;5.18;;
21181;SDS011;10749;46.296;7.524;2023-08-21T08:05:42;10.73;;;5.20;;
21181;SDS011;10749;46.296;7.524;2023-08-21T08:08:08;10.32;;;5.50;;
21181;SDS011;10749;46.296;7.524;2023-08-21T08:10:36;8.60;;;5.18;;
21181;SDS011;10749;46.296;7.524;2023-08-21T08:13:03;10.68;;;5.18;;
21181;SDS011;10749;46.296;7.524;2023-08-21T08:15:28;10.35;;;5.00;;
21181;SDS011;10749;46.296;7.524;2023-08-21T08:17:54;10.50;;;5.22;;
21181;SDS011;10749;46.296;7.524;2023-08-21T08:20:19;10.85;;;5.55;;
21181;SDS011;10749;46.296;7.524;2023-08-21T08:22:45;10.35;;;4.78;;
21181;SDS011;10749;46.296;7.524;2023-08-21T08:25:10;12.88;;;5.57;;
21181;SDS011;10749;46.296;7.524;2023-08-21T08:27:36;9.88;;;5.22;;
21181;SDS011;10749;46.296;7.524;2023-08-21T08:30:02;15.05;;;5.20;;
21181;SDS011;10749;46.296;7.524;2023-08-21T08:32:28;8.27;;;5.07;;
21181;SDS011;10749;46.296;7.524;2023-08-21T08:34:53;10.93;;;5.32;;
21181;SDS011;10749;46.296;7.524;2023-08-21T08:37:19;9.63;;;5.13;;
21181;SDS011;10749;46.296;7.524;2023-08-21T08:39:47;7.60;;;5.50;;
21181;SDS011;10749;46.296;7.524;2023-08-21T08:42:13;10.93;;;5.03;;
21181;SDS011;10749;46.296;7.524;2023-08-21T08:44:40;10.75;;;4.93;;
21181;SDS011;10749;46.296;7.524;2023-08-21T08:47:10;10.15;;;5.05;;
21181;SDS011;10749;46.296;7.524;2023-08-21T08:49:36;7.65;;;4.97;;
21181;SDS011;10749;46.296;7.524;2023-08-21T08:52:04;9.63;;;5.07;;
21181;SDS011;10749;46.296;7.524;2023-08-21T08:54:30;11.68;;;5.30;;
21181;SDS011;10749;46.296;7.524;2023-08-21T08:56:56;8.70;;;5.20;;
21181;SDS011;10749;46.296;7.524;2023-08-21T08:59:23;7.03;;;5.07;;
21181;SDS011;10749;46.296;7.524;2023-08-21T09:01:48;11.23;;;4.70;;
21181;SDS011;10749;46.296;7.524;2023-08-21T09:04:14;9.20;;;4.75;;
21181;SDS011;10749;46.296;7.524;2023-08-21T09:06:39;10.55;;;4.90;;
21181;SDS011;10749;46.296;7.524;2023-08-21T09:09:04;9.65;;;5.32;;
21181;SDS011;10749;46.296;7.524;2023-08-21T09:11:32;8.75;;;4.78;;
21181;SDS011;10749;46.296;7.524;2023-08-21T09:13:58;8.80;;;4.80;;
21181;SDS011;10749;46.296;7.524;2023-08-21T09:16:24;12.40;;;5.32;;
21181;SDS011;10749;46.296;7.524;2023-08-21T09:18:52;8.52;;;5.20;;
21181;SDS011;10749;46.296;7.524;2023-08-21T09:21:22;8.15;;;4.68;;
21181;SDS011;10749;46.296;7.524;2023-08-21T09:23:50;10.20;;;4.78;;
21181;SDS011;10749;46.296;7.524;2023-08-21T09:26:21;11.07;;;4.47;;
21181;SDS011;10749;46.296;7.524;2023-08-21T09:28:48;8.23;;;4.38;;
21181;SDS011;10749;46.296;7.524;2023-08-21T09:31:14;10.00;;;4.65;;
21181;SDS011;10749;46.296;7.524;2023-08-21T09:33:40;9.32;;;4.35;;
21181;SDS011;10749;46.296;7.524;2023-08-21T09:36:05;11.27;;;4.85;;
21181;SDS011;10749;46.296;7.524;2023-08-21T09:38:30;7.35;;;4.57;;
21181;SDS011;10749;46.296;7.524;2023-08-21T09:40:56;8.68;;;4.50;;
21181;SDS011;10749;46.296;7.524;2023-08-21T09:43:22;12.57;;;5.40;;
21181;SDS011;10749;46.296;7.524;2023-08-21T09:45:49;8.40;;;5.18;;
21181;SDS011;10749;46.296;7.524;2023-08-21T09:48:24;13.48;;;5.75;;
21181;SDS011;10749;46.296;7.524;2023-08-21T09:50:54;9.05;;;5.60;;
21181;SDS011;10749;46.296;7.524;2023-08-21T09:53:21;10.95;;;4.95;;
21181;SDS011;10749;46.296;7.524;2023-08-21T09:55:53;7.88;;;4.68;;
21181;SDS011;10749;46.296;7.524;2023-08-21T09:58:20;22.33;;;6.03;;
21181;SDS011;10749;46.296;7.524;2023-08-21T10:00:46;13.85;;;5.53;;
21181;SDS011;10749;46.296;7.524;2023-08-21T10:03:14;11.93;;;5.22;;
21181;SDS011;10749;46.296;7.524;2023-08-21T10:05:43;11.27;;;5.30;;
21181;SDS011;10749;46.296;7.524;2023-08-21T10:08:08;11.20;;;6.18;;
21181;SDS011;10749;46.296;7.524;2023-08-21T10:10:34;8.70;;;4.55;;
21181;SDS011;10749;46.296;7.524;2023-08-21T10:13:03;9.93;;;5.13;;
21181;SDS011;10749;46.296;7.524;2023-08-21T10:15:30;11.93;;;4.68;;
21181;SDS011;10749;46.296;7.524;2023-08-21T10:17:56;8.10;;;4.82;;
21181;SDS011;10749;46.296;7.524;2023-08-21T10:20:22;8.57;;;5.10;;
21181;SDS011;10749;46.296;7.524;2023-08-21T10:22:51;7.45;;;4.40;;
21181;SDS011;10749;46.296;7.524;2023-08-21T10:25:22;8.77;;;4.32;;
21181;SDS011;10749;46.296;7.524;2023-08-21T10:27:57;8.52;;;4.55;;
21181;SDS011;10749;46.296;7.524;2023-08-21T10:30:25;13.32;;;4.85;;
21181;SDS011;10749;46.296;7.524;2023-08-21T10:32:56;11.43;;;4.35;;
21181;SDS011;10749;46.296;7.524;2023-08-21T10:35:24;7.38;;;3.72;;
21181;SDS011;10749;46.296;7.524;2023-08-21T10:40:41;11.02;;;4.80;;
21181;SDS011;10749;46.296;7.524;2023-08-21T10:43:40;8.73;;;4.35;;
21181;SDS011;10749;46.296;7.524;2023-08-21T10:46:06;8.50;;;4.70;;
21181;SDS011;10749;46.296;7.524;2023-08-21T10:48:32;9.57;;;4.68;;
21181;SDS011;10749;46.296;7.524;2023-08-21T10:50:58;10.30;;;4.50;;
21181;SDS011;10749;46.296;7.524;2023-08-21T10:53:32;8.50;;;4.20;;
21181;SDS011;10749;46.296;7.524;2023-08-21T10:56:04;10.55;;;4.85;;
21181;SDS011;10749;46.296;7.524;2023-08-21T10:58:34;16.33;;;5.05;;
21181;SDS011;10749;46.296;7.524;2023-08-21T11:01:02;8.77;;;4.07;;
21181;SDS011;10749;46.296;7.524;2023-08-21T11:03:28;12.98;;;4.30;;
21181;SDS011;10749;46.296;7.524;2023-08-21T11:06:06;11.73;;;4.50;;
21181;SDS011;10749;46.296;7.524;2023-08-21T11:08:34;10.23;;;4.18;;
21181;SDS011;10749;46.296;7.524;2023-08-21T11:11:04;8.32;;;4.18;;
21181;SDS011;10749;46.296;7.524;2023-08-21T11:13:31;8.27;;;4.35;;
21181;SDS011;10749;46.296;7.524;2023-08-21T11:18:36;11.80;;;4.40;;
21181;SDS011;10749;46.296;7.524;2023-08-21T11:21:03;9.13;;;3.80;;
21181;SDS011;10749;46.296;7.524;2023-08-21T11:23:33;7.55;;;3.60;;
21181;SDS011;10749;46.296;7.524;2023-08-21T11:25:59;7.97;;;3.83;;
21181;SDS011;10749;46.296;7.524;2023-08-21T11:28:25;10.88;;;4.28;;
21181;SDS011;10749;46.296;7.524;2023-08-21T11:30:51;10.50;;;4.75;;
21181;SDS011;10749;46.296;7.524;2023-08-21T11:33:17;11.52;;;5.18;;
21181;SDS011;10749;46.296;7.524;2023-08-21T11:35:43;8.35;;;4.75;;
21181;SDS011;10749;46.296;7.524;2023-08-21T11:38:17;6.55;;;3.90;;
21181;SDS011;10749;46.296;7.524;2023-08-21T11:43:37;6.60;;;3.97;;
21181;SDS011;10749;46.296;7.524;2023-08-21T11:46:06;11.90;;;4.35;;
21181;SDS011;10749;46.296;7.524;2023-08-21T11:48:33;7.22;;;4.40;;
21181;SDS011;10749;46.296;7.524;2023-08-21T11:51:00;8.82;;;5.78;;
21181;SDS011;10749;46.296;7.524;2023-08-21T11:53:34;9.18;;;5.20;;
21181;SDS011;10749;46.296;7.524;2023-08-21T11:56:10;11.18;;;4.40;;
21181;SDS011;10749;46.296;7.524;2023-08-21T11:58:38;11.48;;;4.40;;
21181;SDS011;10749;46.296;7.524;2023-08-21T12:01:04;9.73;;;3.50;;
21181;SDS011;10749;46.296;7.524;2023-08-21T12:03:30;10.23;;;3.67;;
21181;SDS011;10749;46.296;7.524;2023-08-21T12:05:56;8.45;;;3.55;;
21181;SDS011;10749;46.296;7.524;2023-08-21T12:08:21;7.90;;;3.50;;
21181;SDS011;10749;46.296;7.524;2023-08-21T12:10:49;9.88;;;3.60;;
21181;SDS011;10749;46.296;7.524;2023-08-21T12:13:17;6.38;;;3.33;;
21181;SDS011;10749;46.296;7.524;2023-08-21T12:15:42;8.73;;;3.45;;
21181;SDS011;10749;46.296;7.524;2023-08-21T12:18:07;10.18;;;3.00;;
21181;SDS011;10749;46.296;7.524;2023-08-21T12:20:33;7.85;;;2.97;;
21181;SDS011;10749;46.296;7.524;2023-08-21T12:22:58;6.78;;;2.83;;
21181;SDS011;10749;46.296;7.524;2023-08-21T12:25:24;8.18;;;3.35;;
21181;SDS011;10749;46.296;7.524;2023-08-21T12:27:49;10.68;;;3.45;;
21181;SDS011;10749;46.296;7.524;2023-08-21T12:30:16;5.63;;;2.60;;
21181;SDS011;10749;46.296;7.524;2023-08-21T12:32:41;7.80;;;3.00;;
21181;SDS011;10749;46.296;7.524;2023-08-21T12:35:07;9.18;;;2.95;;
21181;SDS011;10749;46.296;7.524;2023-08-21T12:37:33;6.50;;;2.15;;
21181;SDS011;10749;46.296;7.524;2023-08-21T12:39:58;7.38;;;2.72;;
21181;SDS011;10749;46.296;7.524;2023-08-21T12:42:23;6.03;;;2.60;;
21181;SDS011;10749;46.296;7.524;2023-08-21T12:44:49;6.10;;;2.30;;
21181;SDS011;10749;46.296;7.524;2023-08-21T12:47:14;8.02;;;2.60;;
21181;SDS011;10749;46.296;7.524;2023-08-21T12:49:39;7.68;;;2.70;;
21181;SDS011;10749;46.296;7.524;2023-08-21T12:52:04;10.10;;;2.60;;
21181;SDS011;10749;46.296;7.524;2023-08-21T12:54:31;9.38;;;2.90;;
21181;SDS011;10749;46.296;7.524;2023-08-21T12:56:57;8.95;;;3.00;;
21181;SDS011;10749;46.296;7.524;2023-08-21T12:59:22;5.97;;;2.70;;
21181;SDS011;10749;46.296;7.524;2023-08-21T13:01:47;10.48;;;2.97;;
21181;SDS011;10749;46.296;7.524;2023-08-21T13:04:12;6.60;;;2.63;;
21181;SDS011;10749;46.296;7.524;2023-08-21T13:06:38;5.85;;;2.60;;
21181;SDS011;10749;46.296;7.524;2023-08-21T13:09:03;5.80;;;2.58;;
21181;SDS011;10749;46.296;7.524;2023-08-21T13:11:29;6.38;;;2.50;;
21181;SDS011;10749;46.296;7.524;2023-08-21T13:13:54;3.03;;;2.05;;
21181;SDS011;10749;46.296;7.524;2023-08-21T13:16:20;4.35;;;2.00;;
21181;SDS011;10749;46.296;7.524;2023-08-21T13:18:45;4.95;;;2.15;;
21181;SDS011;10749;46.296;7.524;2023-08-21T13:21:10;5.20;;;2.22;;
21181;SDS011;10749;46.296;7.524;2023-08-21T13:23:36;5.35;;;2.05;;
21181;SDS011;10749;46.296;7.524;2023-08-21T13:26:01;4.72;;;1.83;;
21181;SDS011;10749;46.296;7.524;2023-08-21T13:28:27;4.25;;;2.15;;
21181;SDS011;10749;46.296;7.524;2023-08-21T13:30:52;4.40;;;2.00;;
21181;SDS011;10749;46.296;7.524;2023-08-21T13:33:18;2.97;;;1.85;;
21181;SDS011;10749;46.296;7.524;2023-08-21T13:35:46;4.38;;;1.80;;
21181;SDS011;10749;46.296;7.524;2023-08-21T13:38:14;6.95;;;1.60;;
21181;SDS011;10749;46.296;7.524;2023-08-21T13:40:41;6.15;;;1.70;;
21181;SDS011;10749;46.296;7.524;2023-08-21T13:43:06;2.30;;;1.65;;
21181;SDS011;10749;46.296;7.524;2023-08-21T13:45:32;3.92;;;1.80;;
21181;SDS011;10749;46.296;7.524;2023-08-21T13:47:57;2.67;;;1.52;;
21181;SDS011;10749;46.296;7.524;2023-08-21T13:50:23;3.30;;;1.83;;
21181;SDS011;10749;46.296;7.524;2023-08-21T13:52:48;3.80;;;1.60;;
21181;SDS011;10749;46.296;7.524;2023-08-21T13:55:13;3.92;;;1.90;;
21181;SDS011;10749;46.296;7.524;2023-08-21T13:57:39;3.03;;;2.45;;
21181;SDS011;10749;46.296;7.524;2023-08-21T14:00:05;3.15;;;2.33;;
21181;SDS011;10749;46.296;7.524;2023-08-21T14:02:35;7.47;;;2.75;;
21181;SDS011;10749;46.296;7.524;2023-08-21T14:05:01;3.90;;;2.30;;
21181;SDS011;10749;46.296;7.524;2023-08-21T14:07:29;6.35;;;2.15;;
21181;SDS011;10749;46.296;7.524;2023-08-21T14:09:55;2.35;;;1.70;;
21181;SDS011;10749;46.296;7.524;2023-08-21T14:12:20;3.40;;;2.05;;
21181;SDS011;10749;46.296;7.524;2023-08-21T14:14:45;4.57;;;1.92;;
21181;SDS011;10749;46.296;7.524;2023-08-21T14:17:10;3.13;;;2.03;;
21181;SDS011;10749;46.296;7.524;2023-08-21T14:19:36;4.13;;;2.00;;
21181;SDS011;10749;46.296;7.524;2023-08-21T14:22:01;4.18;;;1.48;;
21181;SDS011;10749;46.296;7.524;2023-08-21T14:24:28;5.05;;;1.80;;
21181;SDS011;10749;46.296;7.524;2023-08-21T14:26:53;3.75;;;1.95;;
21181;SDS011;10749;46.296;7.524;2023-08-21T14:29:19;4.57;;;2.00;;
21181;SDS011;10749;46.296;7.524;2023-08-21T14:31:44;5.18;;;2.00;;
21181;SDS011;10749;46.296;7.524;2023-08-21T14:34:11;4.97;;;1.95;;
21181;SDS011;10749;46.296;7.524;2023-08-21T14:36:37;4.53;;;1.75;;
21181;SDS011;10749;46.296;7.524;2023-08-21T14:39:02;3.05;;;1.92;;
21181;SDS011;10749;46.296;7.524;2023-08-21T14:41:28;4.15;;;2.00;;
21181;SDS011;10749;46.296;7.524;2023-08-21T14:43:54;3.72;;;2.08;;
21181;SDS011;10749;46.296;7.524;2023-08-21T14:46:19;2.85;;;1.85;;
21181;SDS011;10749;46.296;7.524;2023-08-21T14:48:44;3.35;;;2.13;;